createdAt,value
2019-05-02T00:03:21.004Z,7.28
2019-05-02T00:08:24.329Z,7.12
2019-05-02T00:13:27.621Z,7.10
2019-05-02T00:18:31.947Z,7.05
2019-05-02T00:23:36.290Z,7.30
2019-05-02T00:28:43.005Z,6.22
2019-05-02T00:33:44.669Z,6.95
2019-05-02T00:38:47.976Z,6.67
2019-05-02T00:43:51.269Z,6.40
2019-05-02T00:48:59.770Z,6.50
2019-05-02T00:54:01.360Z,6.22
2019-05-02T00:59:07.472Z,7.25
2019-05-02T01:04:11.410Z,7.00
2019-05-02T01:09:14.711Z,6.50
2019-05-02T01:14:18.077Z,6.37
2019-05-02T01:19:21.491Z,5.90
2019-05-02T01:24:24.789Z,6.28
2019-05-02T01:29:38.517Z,5.90
2019-05-02T01:34:43.465Z,7.00
2019-05-02T01:39:46.761Z,6.65
2019-05-02T01:44:50.102Z,6.67
2019-05-02T01:49:57.230Z,6.72
2019-05-02T01:54:58.494Z,6.42
2019-05-02T02:00:04.236Z,5.92
2019-05-02T02:05:07.241Z,6.08
2019-05-02T02:10:14.996Z,6.37
2019-05-02T02:15:15.637Z,5.47
2019-05-02T02:20:23.017Z,6.35
2019-05-02T02:25:36.292Z,5.70
2019-05-02T02:30:39.681Z,6.28
2019-05-02T02:35:49.774Z,6.62
2019-05-02T02:40:48.057Z,5.87
2019-05-02T02:45:57.601Z,5.65
2019-05-02T02:50:58.030Z,6.10
2019-05-02T02:56:03.831Z,6.22
2019-05-02T03:01:07.557Z,6.17
2019-05-02T03:06:10.870Z,6.20
2019-05-02T03:11:22.367Z,6.70
2019-05-02T03:16:22.512Z,6.25
2019-05-02T03:21:25.846Z,5.42
2019-05-02T03:26:29.171Z,5.90
2019-05-02T03:31:32.478Z,6.17
2019-05-02T03:36:37.220Z,6.08
2019-05-02T03:41:40.749Z,5.62
2019-05-02T03:46:44.083Z,5.40
2019-05-02T03:51:47.434Z,5.97
2019-05-02T03:56:51.595Z,6.40
2019-05-02T04:01:55.820Z,6.53
2019-05-02T04:07:01.107Z,5.95
2019-05-02T04:12:04.345Z,5.87
2019-05-02T04:17:07.687Z,5.53
2019-05-02T04:22:11.918Z,6.25
2019-05-02T04:27:15.499Z,5.62
2019-05-02T04:32:18.844Z,6.08
2019-05-02T04:37:22.144Z,5.75
2019-05-02T04:42:25.458Z,6.22
2019-05-02T04:47:29.192Z,6.62
2019-05-02T04:52:40.735Z,5.83
2019-05-02T04:57:46.774Z,6.60
2019-05-02T05:02:42.655Z,6.25
2019-05-02T05:07:46.688Z,6.78
2019-05-02T05:12:51.052Z,6.37
2019-05-02T05:17:54.389Z,7.05
2019-05-02T05:22:58.177Z,6.35
2019-05-02T05:28:05.822Z,6.95
2019-05-02T05:33:07.584Z,6.83
2019-05-02T05:38:11.622Z,6.72
2019-05-02T05:43:17.987Z,6.55
2019-05-02T05:48:19.966Z,7.42
2019-05-02T05:53:24.597Z,7.70
2019-05-02T05:58:28.471Z,7.80
2019-05-02T06:03:34.048Z,8.33
2019-05-02T06:08:37.103Z,9.20
2019-05-02T06:13:43.029Z,9.10
2019-05-02T06:18:45.624Z,9.75
2019-05-02T06:23:48.922Z,9.68
2019-05-02T06:28:52.249Z,11.15
2019-05-02T06:33:55.560Z,10.75
2019-05-02T06:38:58.935Z,13.68
2019-05-02T06:44:02.256Z,13.40
2019-05-02T06:49:05.660Z,17.77
2019-05-02T06:54:09.046Z,14.78
2019-05-02T06:59:13.188Z,14.98
2019-05-02T07:04:22.715Z,14.55
2019-05-02T07:09:22.737Z,14.03
2019-05-02T07:14:26.168Z,14.90
2019-05-02T07:19:32.271Z,13.78
2019-05-02T07:24:35.579Z,12.65
2019-05-02T07:29:38.881Z,12.47
2019-05-02T07:34:44.256Z,12.45
2019-05-02T07:39:47.240Z,12.03
2019-05-02T07:44:50.571Z,11.43
2019-05-02T07:49:53.922Z,11.85
2019-05-02T07:55:01.152Z,12.43
2019-05-02T08:00:02.790Z,11.45
2019-05-02T08:05:08.734Z,11.57
2019-05-02T08:10:11.404Z,11.53
2019-05-02T08:15:15.276Z,11.10
2019-05-02T08:20:19.566Z,11.20
2019-05-02T08:25:23.725Z,11.00
2019-05-02T08:30:28.720Z,10.95
2019-05-02T08:35:32.071Z,10.85
2019-05-02T08:40:35.412Z,10.82
2019-05-02T08:45:39.633Z,13.68
2019-05-02T08:50:42.921Z,12.20
2019-05-02T08:55:46.739Z,12.13
2019-05-02T09:00:50.161Z,11.05
2019-05-02T09:06:05.328Z,12.05
2019-05-02T09:10:59.109Z,10.68
2019-05-02T09:16:05.571Z,10.75
2019-05-02T09:21:07.465Z,10.82
2019-05-02T09:26:11.934Z,10.80
2019-05-02T09:31:15.844Z,10.58
2019-05-02T09:36:19.177Z,11.38
2019-05-02T09:41:26.938Z,10.40
2019-05-02T09:46:27.587Z,11.25
2019-05-02T09:51:32.463Z,11.08
2019-05-02T09:56:35.927Z,11.63
2019-05-02T10:01:42.111Z,10.80
2019-05-02T10:06:45.701Z,10.50
2019-05-02T10:11:49.066Z,9.88
2019-05-02T10:16:53.060Z,10.68
2019-05-02T10:21:56.531Z,10.55
2019-05-02T10:27:04.144Z,9.65
2019-05-02T10:32:07.557Z,10.00
2019-05-02T10:37:09.886Z,9.68
2019-05-02T10:42:13.212Z,9.20
2019-05-02T10:47:16.562Z,10.00
2019-05-02T10:52:21.696Z,10.40
2019-05-02T10:57:24.906Z,9.53
2019-05-02T11:02:29.871Z,10.58
2019-05-02T11:07:33.165Z,9.80
2019-05-02T11:12:44.068Z,10.13
2019-05-02T11:17:47.135Z,11.53
2019-05-02T11:22:52.632Z,10.00
2019-05-02T11:27:57.333Z,10.13
2019-05-02T11:33:02.884Z,9.93
2019-05-02T11:38:05.579Z,10.50
2019-05-02T11:43:08.858Z,9.40
2019-05-02T11:48:13.994Z,10.08
2019-05-02T11:53:28.861Z,9.43
2019-05-02T11:58:22.978Z,10.05
2019-05-02T12:03:42.995Z,10.45
2019-05-02T12:08:49.365Z,8.85
2019-05-02T12:13:54.798Z,8.90
2019-05-02T12:19:08.480Z,9.95
2019-05-02T12:24:02.241Z,8.70
2019-05-02T12:29:05.759Z,9.48
2019-05-02T12:34:09.152Z,8.80
2019-05-02T12:39:12.724Z,8.15
2019-05-02T12:44:16.010Z,9.08
2019-05-02T12:49:25.325Z,7.85
2019-05-02T12:54:24.366Z,8.98
2019-05-02T12:59:27.693Z,8.60
2019-05-02T13:04:32.253Z,8.25
2019-05-02T13:09:35.607Z,7.60
2019-05-02T13:14:39.026Z,8.60
2019-05-02T13:19:55.803Z,7.40
2019-05-02T13:24:54.176Z,8.10
2019-05-02T13:29:54.271Z,7.53
2019-05-02T13:35:02.330Z,7.70
2019-05-02T13:40:11.965Z,7.70
2019-05-02T13:45:22.876Z,10.48
2019-05-02T13:50:26.281Z,15.00
2019-05-02T13:55:33.737Z,13.10
2019-05-02T14:00:48.083Z,12.33
2019-05-02T14:05:53.790Z,12.35
2019-05-02T14:11:06.779Z,11.90
2019-05-02T14:16:12.095Z,11.35
2019-05-02T14:21:15.323Z,11.95
2019-05-02T14:26:29.581Z,10.48
2019-05-02T14:31:23.927Z,10.95
2019-05-02T14:36:27.344Z,9.75
2019-05-02T14:41:38.930Z,10.35
2019-05-02T14:46:39.375Z,23.50
2019-05-02T14:51:41.789Z,26.87
2019-05-02T14:56:49.737Z,25.48
2019-05-02T15:01:57.899Z,21.25
2019-05-02T15:07:01.901Z,20.80
2019-05-02T15:12:13.897Z,19.62
2019-05-02T15:17:11.986Z,17.00
2019-05-02T15:22:14.992Z,18.60
2019-05-02T15:27:18.324Z,17.85
2019-05-02T15:32:25.421Z,18.17
2019-05-02T15:37:29.139Z,16.75
2019-05-02T15:42:32.470Z,16.30
2019-05-02T15:47:41.117Z,16.15
2019-05-02T15:52:42.778Z,14.85
2019-05-02T15:57:48.018Z,15.13
2019-05-02T16:02:51.709Z,15.08
2019-05-02T16:08:05.397Z,14.85
2019-05-02T16:13:00.726Z,13.90
2019-05-02T16:18:05.344Z,13.88
2019-05-02T16:23:08.749Z,13.35
2019-05-02T16:28:12.691Z,12.93
2019-05-02T16:33:19.759Z,12.40
2019-05-02T16:38:22.230Z,12.28
2019-05-02T16:43:27.590Z,11.70
2019-05-02T16:48:37.425Z,11.40
2019-05-02T16:53:35.976Z,10.60
2019-05-02T16:58:45.310Z,11.50
2019-05-02T17:03:44.560Z,12.33
2019-05-02T17:08:57.366Z,11.08
2019-05-02T17:13:57.622Z,10.32
2019-05-02T17:19:01.676Z,10.82
2019-05-02T17:24:05.170Z,10.70
2019-05-02T17:29:08.530Z,8.80
2019-05-02T17:34:14.651Z,8.75
2019-05-02T17:39:18.798Z,8.68
2019-05-02T17:44:24.472Z,9.43
2019-05-02T17:49:34.800Z,9.10
2019-05-02T17:54:32.357Z,8.28
2019-05-02T17:59:37.575Z,8.53
2019-05-02T18:04:41.920Z,8.03
2019-05-02T18:09:45.362Z,8.55
2019-05-02T18:14:52.536Z,9.30
2019-05-02T18:19:56.763Z,8.23
2019-05-02T18:24:58.833Z,9.00
2019-05-02T18:30:02.387Z,8.05
2019-05-02T18:35:06.445Z,9.00
2019-05-02T18:40:11.769Z,7.70
2019-05-02T18:45:27.366Z,7.85
2019-05-02T18:50:44.289Z,8.03
2019-05-02T18:55:42.444Z,8.70
2019-05-02T19:00:45.784Z,8.03
2019-05-02T19:05:51.486Z,7.80
2019-05-02T19:11:05.346Z,7.67
2019-05-02T19:15:59.314Z,8.15
2019-05-02T19:21:03.349Z,6.67
2019-05-02T19:26:09.948Z,6.75
2019-05-02T19:31:12.046Z,7.08
2019-05-02T19:36:16.224Z,6.85
2019-05-02T19:41:22.314Z,5.85
2019-05-02T19:46:34.742Z,6.40
2019-05-02T19:51:31.699Z,6.10
2019-05-02T19:56:43.931Z,6.47
2019-05-02T20:01:40.139Z,5.97
2019-05-02T20:06:43.454Z,5.53
2019-05-02T20:11:46.761Z,5.92
2019-05-02T20:16:52.894Z,6.83
2019-05-02T20:22:02.883Z,5.90
2019-05-02T20:27:02.991Z,6.20
2019-05-02T20:32:06.315Z,5.83
2019-05-02T20:37:09.798Z,5.67
2019-05-02T20:42:13.118Z,6.12
2019-05-02T20:47:21.744Z,6.20
2019-05-02T20:57:48.387Z,5.50
2019-05-02T21:02:51.931Z,6.15
2019-05-02T21:08:02.337Z,5.78
2019-05-02T21:13:05.725Z,5.70
2019-05-02T21:18:09.061Z,5.55
2019-05-02T21:23:12.392Z,5.97
2019-05-02T21:28:15.736Z,5.95
2019-05-02T21:33:32.034Z,5.55
2019-05-02T21:38:35.378Z,5.90
2019-05-02T21:43:38.693Z,5.20
2019-05-02T21:48:42.178Z,4.62
2019-05-02T21:53:54.913Z,5.30
2019-05-02T21:59:09.563Z,5.50
2019-05-02T22:04:13.285Z,5.10
2019-05-02T22:09:16.704Z,4.67
2019-05-02T22:14:22.088Z,4.97
2019-05-02T22:19:25.140Z,4.87
2019-05-02T22:24:28.488Z,4.67
2019-05-02T22:29:32.431Z,4.72
2019-05-02T22:34:35.908Z,4.65
2019-05-02T22:39:42.050Z,4.97
2019-05-02T22:44:45.527Z,4.42
2019-05-02T22:49:48.887Z,4.35
2019-05-02T22:54:52.475Z,4.30
2019-05-02T22:59:55.796Z,4.50
2019-05-02T23:04:59.147Z,4.65
2019-05-02T23:10:02.596Z,4.53
2019-05-02T23:15:06.735Z,4.85
2019-05-02T23:20:10.084Z,4.10
2019-05-02T23:25:23.940Z,4.70
2019-05-02T23:30:27.376Z,4.28
2019-05-02T23:35:32.003Z,3.85
2019-05-02T23:40:35.793Z,3.62
2019-05-02T23:45:39.144Z,4.20
2019-05-02T23:50:42.522Z,3.77
2019-05-02T23:55:45.876Z,3.77
